createdAt,value
2023-02-20T00:01:04.592Z,3.30
2023-02-20T00:03:33.957Z,2.60
2023-02-20T00:06:05.695Z,3.20
2023-02-20T00:08:37.633Z,3.10
2023-02-20T00:11:11.407Z,2.80
2023-02-20T00:13:42.526Z,2.70
2023-02-20T00:16:13.652Z,2.20
2023-02-20T00:18:44.256Z,2.20
2023-02-20T00:21:17.945Z,2.30
2023-02-20T00:23:51.765Z,2.40
2023-02-20T00:26:20.248Z,2.60
2023-02-20T00:28:55.180Z,2.50
2023-02-20T00:31:28.845Z,3.10
2023-02-20T00:33:57.975Z,2.30
2023-02-20T00:36:33.290Z,2.00
2023-02-20T00:39:05.465Z,2.70
2023-02-20T00:41:37.461Z,2.60
2023-02-20T00:44:08.338Z,2.00
2023-02-20T00:46:41.015Z,2.60
2023-02-20T00:51:53.318Z,3.60
2023-02-20T00:56:52.446Z,2.80
2023-02-20T00:59:23.948Z,3.20
2023-02-20T01:02:18.079Z,2.20
2023-02-20T01:04:47.744Z,2.60
2023-02-20T01:07:16.605Z,2.10
2023-02-20T01:09:47.499Z,2.00
2023-02-20T01:12:18.451Z,2.50
2023-02-20T01:14:48.926Z,2.10
2023-02-20T01:17:19.571Z,2.40
2023-02-20T01:19:52.666Z,1.90
2023-02-20T01:22:22.541Z,2.00
2023-02-20T01:24:56.940Z,2.60
2023-02-20T01:27:27.280Z,3.00
2023-02-20T01:29:57.905Z,2.50
2023-02-20T01:32:31.573Z,2.90
2023-02-20T01:35:02.093Z,2.80
2023-02-20T01:37:31.746Z,2.20
2023-02-20T01:40:01.099Z,3.00
2023-02-20T01:42:32.916Z,3.00
2023-02-20T01:45:39.997Z,2.90
2023-02-20T01:48:21.086Z,2.20
2023-02-20T01:50:56.956Z,2.70
2023-02-20T01:53:27.222Z,2.30
2023-02-20T01:56:05.505Z,1.70
2023-02-20T01:58:42.053Z,2.20
2023-02-20T02:01:15.677Z,2.30
2023-02-20T02:03:46.082Z,2.00
2023-02-20T02:06:21.251Z,2.10
2023-02-20T02:08:53.542Z,2.10
2023-02-20T02:11:30.035Z,1.80
2023-02-20T02:14:02.113Z,2.70
2023-02-20T02:16:44.027Z,1.70
2023-02-20T02:19:16.865Z,1.70
2023-02-20T02:25:36.563Z,2.10
2023-02-20T02:28:26.327Z,2.70
2023-02-20T02:31:05.836Z,1.70
2023-02-20T02:34:15.126Z,1.80
2023-02-20T02:37:05.083Z,2.10
2023-02-20T02:39:59.328Z,2.00
2023-02-20T02:42:54.828Z,2.30
2023-02-20T02:45:31.849Z,1.40
2023-02-20T02:48:09.964Z,1.90
2023-02-20T02:50:40.894Z,1.60
2023-02-20T02:53:30.912Z,1.70
2023-02-20T02:56:21.655Z,1.50
2023-02-20T02:58:51.632Z,1.90
2023-02-20T03:01:21.469Z,2.50
2023-02-20T03:03:52.838Z,2.20
2023-02-20T03:06:29.394Z,2.50
2023-02-20T03:09:05.138Z,2.50
2023-02-20T03:11:35.773Z,2.30
2023-02-20T03:14:35.885Z,2.70
2023-02-20T03:17:10.178Z,2.10
2023-02-20T03:19:47.111Z,1.40
2023-02-20T03:22:25.279Z,1.70
2023-02-20T03:24:57.995Z,1.80
2023-02-20T03:27:47.100Z,1.70
2023-02-20T03:30:47.139Z,1.70
2023-02-20T03:33:39.747Z,1.80
2023-02-20T03:36:29.825Z,1.70
2023-02-20T03:39:23.162Z,1.70
2023-02-20T03:42:10.425Z,1.50
2023-02-20T03:44:40.732Z,2.70
2023-02-20T03:49:46.908Z,1.80
2023-02-20T03:52:17.935Z,2.00
2023-02-20T03:54:48.283Z,1.80
2023-02-20T03:57:23.608Z,1.60
2023-02-20T03:59:56.879Z,1.90
2023-02-20T04:02:43.910Z,2.20
2023-02-20T04:05:21.374Z,2.20
2023-02-20T04:07:54.568Z,1.80
2023-02-20T04:10:34.901Z,3.00
2023-02-20T04:13:04.852Z,2.10
2023-02-20T04:15:34.908Z,2.20
2023-02-20T04:18:13.818Z,2.30
2023-02-20T04:20:42.882Z,2.10
2023-02-20T04:23:22.339Z,1.80
2023-02-20T04:26:02.988Z,2.60
2023-02-20T04:28:33.578Z,2.70
2023-02-20T04:31:05.337Z,2.40
2023-02-20T04:33:36.994Z,2.60
2023-02-20T04:36:11.131Z,3.10
2023-02-20T04:38:42.495Z,3.20
2023-02-20T04:41:15.115Z,2.70
2023-02-20T04:45:50.616Z,3.60
2023-02-20T04:48:18.979Z,2.40
2023-02-20T04:50:55.351Z,2.30
2023-02-20T04:53:25.196Z,4.90
2023-02-20T04:55:55.863Z,3.40
2023-02-20T04:58:36.812Z,3.30
2023-02-20T05:01:11.845Z,2.50
2023-02-20T05:03:43.390Z,2.50
2023-02-20T05:06:14.102Z,2.00
2023-02-20T05:08:52.704Z,2.70
2023-02-20T05:11:24.313Z,2.60
2023-02-20T05:13:52.101Z,3.50
2023-02-20T05:16:19.708Z,2.80
2023-02-20T05:18:53.116Z,2.70
2023-02-20T05:21:39.385Z,2.70
2023-02-20T05:24:09.660Z,3.40
2023-02-20T05:26:39.441Z,2.60
2023-02-20T05:29:09.465Z,2.70
2023-02-20T05:31:39.827Z,2.30
2023-02-20T05:34:11.031Z,1.90
2023-02-20T05:36:40.304Z,2.40
2023-02-20T05:39:16.535Z,2.40
2023-02-20T05:41:46.679Z,2.60
2023-02-20T05:44:19.838Z,2.20
2023-02-20T05:46:50.638Z,2.00
2023-02-20T05:49:35.443Z,2.10
2023-02-20T05:52:11.497Z,2.40
2023-02-20T05:54:42.401Z,2.30
2023-02-20T05:57:12.442Z,2.90
2023-02-20T05:59:40.995Z,2.30
2023-02-20T06:02:14.624Z,2.40
2023-02-20T06:04:46.562Z,2.00
2023-02-20T06:07:21.215Z,3.20
2023-02-20T06:09:54.028Z,2.90
2023-02-20T06:12:22.729Z,2.50
2023-02-20T06:15:18.802Z,2.90
2023-02-20T06:17:50.151Z,2.60
2023-02-20T06:20:23.547Z,2.30
2023-02-20T06:22:51.924Z,2.50
2023-02-20T06:25:24.480Z,2.30
2023-02-20T06:27:53.180Z,2.70
2023-02-20T06:30:22.373Z,2.00
2023-02-20T06:33:03.773Z,2.90
2023-02-20T06:35:40.594Z,2.90
2023-02-20T06:38:08.119Z,2.60
2023-02-20T06:40:39.352Z,1.40
2023-02-20T06:43:09.089Z,1.90
2023-02-20T06:45:39.649Z,2.80
2023-02-20T06:48:15.732Z,3.60
2023-02-20T06:50:46.201Z,2.80
2023-02-20T06:53:18.150Z,4.00
2023-02-20T06:55:49.498Z,4.70
2023-02-20T06:58:20.702Z,3.20
2023-02-20T07:00:52.636Z,3.10
2023-02-20T07:03:23.078Z,3.00
2023-02-20T07:05:52.108Z,2.30
2023-02-20T07:08:34.536Z,2.50
2023-02-20T07:11:04.269Z,1.50
2023-02-20T07:13:38.846Z,1.60
2023-02-20T07:16:08.737Z,2.30
2023-02-20T07:18:41.462Z,2.20
2023-02-20T07:21:09.450Z,2.00
2023-02-20T07:23:40.894Z,2.50
2023-02-20T07:26:17.656Z,2.80
2023-02-20T07:28:45.733Z,1.90
2023-02-20T07:31:14.679Z,1.80
2023-02-20T07:33:46.616Z,2.20
2023-02-20T07:36:16.257Z,2.30
2023-02-20T07:39:09.316Z,2.40
2023-02-20T07:41:41.758Z,2.70
2023-02-20T07:44:35.875Z,1.60
2023-02-20T07:47:07.008Z,2.50
2023-02-20T07:49:35.046Z,2.40
2023-02-20T07:52:10.744Z,2.10
2023-02-20T07:54:44.717Z,2.80
2023-02-20T07:57:13.052Z,2.30
2023-02-20T07:59:44.738Z,3.40
2023-02-20T08:02:15.498Z,2.30
2023-02-20T08:04:49.577Z,2.50
2023-02-20T08:07:19.884Z,2.10
2023-02-20T08:09:50.366Z,1.90
2023-02-20T08:15:23.930Z,1.50
2023-02-20T08:17:53.967Z,1.80
2023-02-20T08:20:26.892Z,1.60
2023-02-20T08:22:56.955Z,1.90
2023-02-20T08:25:32.603Z,2.40
2023-02-20T08:28:10.455Z,1.80
2023-02-20T08:30:42.287Z,2.70
2023-02-20T08:35:50.235Z,1.60
2023-02-20T08:38:33.840Z,1.40
2023-02-20T08:41:09.168Z,1.80
2023-02-20T08:43:42.918Z,1.60
2023-02-20T08:46:13.530Z,1.50
2023-02-20T08:48:41.966Z,1.80
2023-02-20T08:51:11.706Z,2.30
2023-02-20T08:53:40.988Z,3.40
2023-02-20T08:56:36.960Z,1.60
2023-02-20T08:59:05.082Z,1.80
2023-02-20T09:01:38.752Z,1.70
2023-02-20T09:04:12.578Z,2.20
2023-02-20T09:06:43.003Z,2.80
2023-02-20T09:09:12.596Z,1.20
2023-02-20T09:11:44.253Z,1.70
2023-02-20T09:14:33.500Z,1.20
2023-02-20T09:17:08.149Z,1.60
2023-02-20T09:19:45.628Z,1.40
2023-02-20T09:22:16.154Z,1.90
2023-02-20T09:24:52.542Z,2.50
2023-02-20T09:27:21.907Z,2.30
2023-02-20T09:29:53.781Z,2.30
2023-02-20T09:32:27.954Z,1.90
2023-02-20T09:35:21.620Z,1.60
2023-02-20T09:37:52.703Z,1.60
2023-02-20T09:40:28.179Z,1.10
2023-02-20T09:43:23.122Z,1.20
2023-02-20T09:46:23.033Z,1.80
2023-02-20T09:49:02.923Z,2.20
2023-02-20T09:51:36.015Z,3.00
2023-02-20T09:54:20.646Z,1.80
2023-02-20T09:56:56.093Z,1.50
2023-02-20T09:59:34.766Z,2.00
2023-02-20T10:02:23.266Z,1.60
2023-02-20T10:05:01.167Z,1.30
2023-02-20T10:07:38.971Z,1.80
2023-02-20T10:10:39.029Z,2.40
2023-02-20T10:13:28.850Z,2.20
2023-02-20T10:16:21.908Z,1.20
2023-02-20T10:19:08.590Z,1.30
2023-02-20T10:21:59.125Z,1.90
2023-02-20T10:25:01.619Z,1.80
2023-02-20T10:27:39.245Z,1.60
2023-02-20T10:30:12.019Z,2.90
2023-02-20T10:32:54.888Z,1.70
2023-02-20T10:35:41.277Z,1.70
2023-02-20T10:38:52.409Z,2.10
2023-02-20T10:41:42.252Z,2.10
2023-02-20T10:44:21.515Z,1.90
2023-02-20T10:47:04.230Z,2.00
2023-02-20T10:49:56.806Z,2.40
2023-02-20T10:52:35.094Z,1.60
2023-02-20T10:55:13.098Z,2.20
2023-02-20T10:58:23.178Z,1.80
2023-02-20T11:00:55.249Z,1.50
2023-02-20T11:04:00.543Z,1.20
2023-02-20T11:06:36.538Z,1.60
2023-02-20T11:09:10.253Z,1.40
2023-02-20T11:11:46.023Z,1.60
2023-02-20T11:14:27.846Z,1.50
2023-02-20T11:17:12.057Z,1.80
2023-02-20T11:19:53.801Z,1.90
2023-02-20T11:22:48.681Z,1.40
2023-02-20T11:25:36.880Z,2.10
2023-02-20T11:28:24.368Z,1.50
2023-02-20T11:31:21.460Z,2.00
2023-02-20T11:33:50.230Z,1.60
2023-02-20T11:36:39.170Z,1.40
2023-02-20T11:39:24.319Z,1.70
2023-02-20T11:42:07.120Z,2.00
2023-02-20T11:44:39.640Z,1.50
2023-02-20T11:47:19.194Z,1.20
2023-02-20T11:49:50.957Z,2.10
2023-02-20T11:52:22.221Z,1.80
2023-02-20T11:55:18.917Z,1.70
2023-02-20T11:57:50.431Z,1.40
2023-02-20T12:00:25.462Z,1.60
2023-02-20T12:03:30.458Z,1.40
2023-02-20T12:06:42.599Z,1.80
2023-02-20T12:09:13.188Z,1.40
2023-02-20T12:11:43.378Z,1.30
2023-02-20T12:14:23.384Z,1.10
2023-02-20T12:17:24.847Z,1.30
2023-02-20T12:20:26.787Z,1.40
2023-02-20T12:23:43.387Z,1.70
2023-02-20T12:26:26.395Z,2.60
2023-02-20T12:32:13.494Z,1.60
2023-02-20T12:35:23.524Z,1.60
2023-02-20T12:38:39.306Z,1.60
2023-02-20T12:41:42.444Z,1.70
2023-02-20T12:44:55.481Z,1.90
2023-02-20T12:47:39.749Z,1.40
2023-02-20T12:50:26.121Z,1.70
2023-02-20T12:53:19.591Z,1.60
2023-02-20T12:58:45.273Z,1.60
2023-02-20T13:01:14.905Z,2.10
2023-02-20T13:04:08.850Z,1.90
2023-02-20T13:07:13.379Z,2.10
2023-02-20T13:12:15.629Z,1.70
2023-02-20T13:15:45.474Z,1.20
2023-02-20T13:19:02.383Z,1.70
2023-02-20T13:21:33.574Z,1.80
2023-02-20T13:24:18.830Z,1.90
2023-02-20T13:26:51.007Z,1.60
2023-02-20T13:29:27.018Z,2.10
2023-02-20T13:32:36.293Z,2.20
2023-02-20T13:35:44.336Z,2.20
2023-02-20T13:38:22.105Z,1.70
2023-02-20T13:41:07.846Z,2.00
2023-02-20T13:43:41.749Z,1.60
2023-02-20T13:46:15.438Z,1.60
2023-02-20T13:48:49.343Z,1.60
2023-02-20T13:51:28.865Z,2.20
2023-02-20T13:54:22.733Z,1.90
2023-02-20T13:57:01.443Z,2.20
2023-02-20T14:00:01.038Z,1.90
2023-02-20T14:02:40.378Z,2.60
2023-02-20T14:05:27.737Z,2.10
2023-02-20T14:08:00.925Z,1.60
2023-02-20T14:10:31.470Z,2.30
2023-02-20T14:13:16.507Z,2.00
2023-02-20T14:15:52.299Z,2.00
2023-02-20T14:18:35.040Z,2.40
2023-02-20T14:21:26.996Z,2.30
2023-02-20T14:24:10.481Z,2.30
2023-02-20T14:26:41.272Z,2.40
2023-02-20T14:29:32.953Z,2.10
2023-02-20T14:32:06.485Z,1.50
2023-02-20T14:34:50.432Z,2.10
2023-02-20T14:37:31.886Z,3.00
2023-02-20T14:40:23.711Z,2.30
2023-02-20T14:42:57.958Z,2.10
2023-02-20T14:45:28.132Z,2.30
2023-02-20T14:47:58.908Z,2.50
2023-02-20T14:50:28.820Z,2.70
2023-02-20T14:53:17.719Z,2.00
2023-02-20T14:55:51.547Z,1.80
2023-02-20T14:58:24.618Z,2.00
2023-02-20T15:00:53.832Z,2.80
2023-02-20T15:04:13.403Z,3.10
2023-02-20T15:06:45.592Z,2.00
2023-02-20T15:09:22.666Z,2.10
2023-02-20T15:11:58.804Z,1.70
2023-02-20T15:14:34.990Z,3.10
2023-02-20T15:17:11.107Z,2.70
2023-02-20T15:19:48.826Z,2.80
2023-02-20T15:22:32.921Z,3.30
2023-02-20T15:25:27.674Z,2.90
2023-02-20T15:28:27.542Z,3.90
2023-02-20T15:31:23.956Z,3.00
2023-02-20T15:33:56.276Z,3.30
2023-02-20T15:36:28.281Z,2.90
2023-02-20T15:38:57.910Z,4.40
2023-02-20T15:41:27.716Z,3.70
2023-02-20T15:44:05.610Z,3.60
2023-02-20T15:46:39.990Z,3.50
2023-02-20T15:49:20.500Z,4.60
2023-02-20T15:52:07.794Z,2.50
2023-02-20T15:54:46.062Z,2.90
2023-02-20T15:57:17.865Z,3.40
2023-02-20T15:59:47.598Z,3.10
2023-02-20T16:02:23.915Z,3.30
2023-02-20T16:04:56.169Z,4.50
2023-02-20T16:07:26.614Z,4.80
2023-02-20T16:09:56.072Z,6.50
2023-02-20T16:12:32.781Z,5.70
2023-02-20T16:15:01.818Z,5.00
2023-02-20T16:17:56.911Z,4.90
2023-02-20T16:20:30.570Z,3.90
2023-02-20T16:23:04.910Z,4.30
2023-02-20T16:25:34.871Z,3.90
2023-02-20T16:28:08.095Z,3.60
2023-02-20T16:30:43.361Z,4.70
2023-02-20T16:33:16.934Z,3.50
2023-02-20T16:35:55.284Z,3.20
2023-02-20T16:38:28.877Z,4.80
2023-02-20T16:41:02.906Z,4.50
2023-02-20T16:43:35.000Z,7.00
2023-02-20T16:46:04.183Z,4.60
2023-02-20T16:48:36.531Z,5.40
2023-02-20T16:51:06.904Z,6.30
2023-02-20T16:53:39.036Z,4.20
2023-02-20T16:56:11.326Z,3.10
2023-02-20T16:58:40.027Z,4.10
2023-02-20T17:04:13.934Z,4.70
2023-02-20T17:06:47.562Z,4.20
2023-02-20T17:09:45.949Z,4.60
2023-02-20T17:12:18.149Z,5.10
2023-02-20T17:14:53.980Z,4.10
2023-02-20T17:17:32.692Z,4.00
2023-02-20T17:20:28.690Z,4.00
2023-02-20T17:23:05.011Z,3.20
2023-02-20T17:25:36.032Z,3.20
2023-02-20T17:28:05.019Z,4.20
2023-02-20T17:30:41.874Z,4.20
2023-02-20T17:33:16.015Z,3.90
2023-02-20T17:35:47.184Z,4.40
2023-02-20T17:38:15.652Z,4.50
2023-02-20T17:40:48.052Z,4.60
2023-02-20T17:45:50.248Z,4.30
2023-02-20T17:48:18.663Z,4.50
2023-02-20T17:50:47.175Z,4.20
2023-02-20T17:53:17.951Z,4.90
2023-02-20T17:55:47.071Z,4.40
2023-02-20T17:58:16.069Z,5.10
2023-02-20T18:00:49.682Z,4.70
2023-02-20T18:03:22.436Z,6.10
2023-02-20T18:05:51.321Z,6.50
2023-02-20T18:08:27.368Z,8.20
2023-02-20T18:10:58.117Z,5.30
2023-02-20T18:13:27.197Z,4.60
2023-02-20T18:16:01.935Z,4.90
2023-02-20T18:18:36.194Z,4.70
2023-02-20T18:21:29.076Z,4.40
2023-02-20T18:23:58.329Z,5.80
2023-02-20T18:26:30.943Z,3.70
2023-02-20T18:29:05.444Z,3.40
2023-02-20T18:31:36.308Z,3.70
2023-02-20T18:34:06.140Z,4.70
2023-02-20T18:36:35.001Z,4.30
2023-02-20T18:39:05.586Z,3.40
2023-02-20T18:41:39.126Z,3.30
2023-02-20T18:44:08.519Z,3.20
2023-02-20T18:46:40.969Z,3.20
2023-02-20T18:51:42.482Z,3.40
2023-02-20T18:54:18.001Z,3.00
2023-02-20T18:57:01.374Z,3.10
2023-02-20T18:59:30.545Z,4.00
2023-02-20T19:02:12.429Z,3.60
2023-02-20T19:04:40.717Z,3.40
2023-02-20T19:07:12.019Z,4.10
2023-02-20T19:09:43.932Z,3.30
2023-02-20T19:12:24.826Z,3.90
2023-02-20T19:14:54.276Z,4.10
2023-02-20T19:17:24.002Z,4.60
2023-02-20T19:19:52.029Z,4.80
2023-02-20T19:22:28.142Z,5.10
2023-02-20T19:25:00.379Z,5.20
2023-02-20T19:27:54.601Z,4.70
2023-02-20T19:30:25.837Z,5.70
2023-02-20T19:32:59.389Z,4.70
2023-02-20T19:35:29.137Z,5.00
2023-02-20T19:38:08.576Z,5.40
2023-02-20T19:40:48.709Z,4.80
2023-02-20T19:43:18.372Z,4.60
2023-02-20T19:45:49.892Z,4.80
2023-02-20T19:48:27.780Z,5.70
2023-02-20T19:51:01.084Z,4.30
2023-02-20T19:56:03.578Z,3.80
2023-02-20T19:58:36.356Z,5.10
2023-02-20T20:01:08.379Z,4.60
2023-02-20T20:03:45.709Z,4.70
2023-02-20T20:06:16.547Z,4.40
2023-02-20T20:09:13.709Z,4.50
2023-02-20T20:11:43.328Z,4.80
2023-02-20T20:14:15.266Z,3.80
2023-02-20T20:16:50.740Z,4.10
2023-02-20T20:19:25.073Z,4.30
2023-02-20T20:22:05.910Z,4.40
2023-02-20T20:24:36.883Z,3.80
2023-02-20T20:27:34.659Z,4.60
2023-02-20T20:30:08.588Z,6.30
2023-02-20T20:32:42.454Z,6.10
2023-02-20T20:35:13.837Z,6.90
2023-02-20T20:37:45.579Z,5.50
2023-02-20T20:40:24.578Z,7.30
2023-02-20T20:43:03.565Z,5.60
2023-02-20T20:45:47.256Z,5.50
2023-02-20T20:48:20.396Z,4.80
2023-02-20T20:50:57.784Z,4.50
2023-02-20T20:53:28.978Z,5.10
2023-02-20T20:56:05.608Z,4.80
2023-02-20T20:58:36.584Z,6.20
2023-02-20T21:01:09.763Z,5.60
2023-02-20T21:03:42.484Z,5.70
2023-02-20T21:06:15.189Z,4.90
2023-02-20T21:08:48.802Z,4.60
2023-02-20T21:11:19.819Z,4.90
2023-02-20T21:13:53.224Z,4.70
2023-02-20T21:20:54.679Z,4.90
2023-02-20T21:24:42.446Z,4.30
2023-02-20T21:27:16.471Z,5.20
2023-02-20T21:30:15.284Z,4.10
2023-02-20T21:32:43.858Z,3.20
2023-02-20T21:35:25.699Z,3.30
2023-02-20T21:37:58.320Z,2.90
2023-02-20T21:40:28.977Z,3.10
2023-02-20T21:43:21.936Z,3.20
2023-02-20T21:45:52.359Z,2.90
2023-02-20T21:48:25.358Z,2.30
2023-02-20T21:51:01.084Z,2.10
2023-02-20T21:53:32.972Z,2.50
2023-02-20T21:56:09.175Z,3.80
2023-02-20T21:59:00.692Z,3.90
2023-02-20T22:01:33.007Z,3.60
2023-02-20T22:04:05.893Z,2.80
2023-02-20T22:06:41.218Z,2.80
2023-02-20T22:09:43.189Z,2.90
2023-02-20T22:12:35.927Z,3.20
2023-02-20T22:15:27.743Z,2.60
2023-02-20T22:18:22.821Z,2.00
2023-02-20T22:21:43.902Z,2.70
2023-02-20T22:25:05.333Z,2.80
2023-02-20T22:28:02.372Z,2.40
2023-02-20T22:31:21.055Z,3.10
2023-02-20T22:34:16.026Z,2.10
2023-02-20T22:37:18.751Z,2.00
2023-02-20T22:43:43.059Z,2.60
2023-02-20T22:47:10.270Z,2.80
2023-02-20T22:50:07.025Z,2.40
2023-02-20T22:52:58.822Z,2.90
2023-02-20T22:55:58.173Z,3.00
2023-02-20T22:58:51.822Z,2.20
2023-02-20T23:01:50.872Z,3.00
2023-02-20T23:04:44.439Z,2.40
2023-02-20T23:07:36.493Z,2.90
2023-02-20T23:10:32.624Z,2.40
2023-02-20T23:16:48.620Z,2.20
2023-02-20T23:19:45.398Z,3.00
2023-02-20T23:22:39.715Z,3.40
2023-02-20T23:25:32.700Z,3.60
2023-02-20T23:28:36.756Z,2.30
2023-02-20T23:31:29.577Z,2.40
2023-02-20T23:34:20.229Z,2.70
2023-02-20T23:37:11.452Z,2.60
2023-02-20T23:40:17.219Z,2.70
2023-02-20T23:43:35.124Z,3.20
2023-02-20T23:46:52.341Z,2.50
2023-02-20T23:49:51.591Z,2.80
2023-02-20T23:52:43.955Z,2.20
2023-02-20T23:55:44.882Z,3.30
2023-02-20T23:58:49.310Z,3.20
